Time;durP1;ratioP1;P1;durP2;ratioP2;P2;SDS_P1;SDS_P2;PMS_P1;PMS_P2;Temp;Humidity;BMP_temperature;BMP_pressure;BME280_temperature;BME280_humidity;BME280_pressure;Samples;Min_cycle;Max_cycle;Signal;HPM_P1;HPM_P2
2021/12/08 00:00:27;;;;;;;12.85;6.65;;;;;;;9.74;65.13;99121.78;4937743;29;20039;-66
2021/12/08 00:02:54;;;;;;;10.23;6.20;;;;;;;9.36;66.16;99139.25;4954919;29;20035;-66
2021/12/08 00:05:22;;;;;;;13.35;6.13;;;;;;;9.19;66.98;99132.00;4954649;29;20031;-64
2021/12/08 00:07:48;;;;;;;12.57;6.47;;;;;;;9.98;64.48;99137.44;4938668;29;20038;-64
2021/12/08 00:10:28;;;;;;;11.73;6.47;;;;;;;9.32;66.42;99132.84;4954273;29;20036;-64
2021/12/08 00:15:29;;;;;;;15.90;7.22;;;;;;;9.84;65.57;99137.75;4939931;29;20103;-66
2021/12/08 00:17:56;;;;;;;16.77;8.13;;;;;;;9.86;65.68;99121.78;4922784;29;20040;-67
2021/12/08 00:20:22;;;;;;;15.25;7.97;;;;;;;9.33;66.74;99107.88;4937949;29;20059;-66
2021/12/08 00:22:48;;;;;;;13.77;7.72;;;;;;;10.32;63.94;99113.47;4954647;29;20396;-65
2021/12/08 00:25:13;;;;;;;15.07;7.82;;;;;;;10.10;64.09;99112.81;4921851;29;20027;-63
2021/12/08 00:27:40;;;;;;;14.13;7.80;;;;;;;10.66;62.55;99106.75;4938286;29;20059;-63
2021/12/08 00:30:06;;;;;;;15.68;8.32;;;;;;;10.75;62.30;99114.81;4938325;29;20054;-64
2021/12/08 00:32:34;;;;;;;15.40;7.90;;;;;;;10.34;63.95;99123.00;4938307;29;20040;-64
2021/12/08 00:35:00;;;;;;;12.65;7.95;;;;;;;10.75;62.50;99124.97;4939051;29;20088;-64
2021/12/08 00:37:26;;;;;;;13.82;8.48;;;;;;;10.50;62.69;99125.84;4937111;29;20051;-64
2021/12/08 00:39:52;;;;;;;15.82;7.72;;;;;;;10.62;62.70;99126.94;4923005;29;20023;-66
2021/12/08 00:42:19;;;;;;;15.07;7.88;;;;;;;10.34;63.77;99133.94;4954710;29;20038;-65
2021/12/08 00:44:45;;;;;;;13.43;7.85;;;;;;;10.29;64.47;99108.69;4954028;29;20087;-66
2021/12/08 00:47:10;;;;;;;14.30;7.75;;;;;;;10.36;63.86;99116.38;4954484;29;20036;-63
2021/12/08 00:49:36;;;;;;;11.73;7.18;;;;;;;10.27;64.30;99121.94;4938294;29;20067;-65
2021/12/08 00:52:02;;;;;;;14.60;7.70;;;;;;;10.27;63.92;99127.41;4938007;29;20032;-64
2021/12/08 00:54:28;;;;;;;12.90;8.07;;;;;;;10.49;64.03;99142.63;4937640;29;20038;-65
2021/12/08 00:56:53;;;;;;;12.40;7.53;;;;;;;10.54;63.43;99147.84;4954673;29;20035;-64
2021/12/08 00:59:18;;;;;;;12.32;7.80;;;;;;;10.17;64.89;99151.38;4953750;29;20078;-66
2021/12/08 01:01:44;;;;;;;15.30;7.63;;;;;;;10.63;64.09;99143.06;4936944;29;20035;-65
2021/12/08 01:04:09;;;;;;;14.30;7.38;;;;;;;10.59;63.62;99155.03;4936239;29;20042;-64
2021/12/08 01:06:35;;;;;;;16.33;8.02;;;;;;;10.13;65.30;99158.69;4937067;29;20023;-63
2021/12/08 01:09:00;;;;;;;14.20;7.10;;;;;;;10.59;63.61;99149.56;4936451;29;20051;-65
2021/12/08 01:11:26;;;;;;;11.40;5.88;;;;;;;10.46;64.44;99152.31;4936671;29;20039;-64
2021/12/08 01:13:51;;;;;;;12.85;6.88;;;;;;;10.47;63.64;99147.66;4953572;29;20083;-66
2021/12/08 01:16:19;;;;;;;12.55;6.72;;;;;;;10.44;64.43;99153.81;4952777;29;20028;-67
2021/12/08 01:18:45;;;;;;;17.70;6.95;;;;;;;10.70;63.51;99158.91;4953713;29;20027;-65
2021/12/08 01:21:12;;;;;;;13.70;6.47;;;;;;;11.24;61.76;99168.72;4936215;29;20035;-64
2021/12/08 01:23:38;;;;;;;12.95;6.47;;;;;;;11.13;61.44;99178.59;4937029;29;20068;-65
2021/12/08 01:26:06;;;;;;;16.60;7.38;;;;;;;11.18;61.64;99178.31;4953157;29;20060;-64
2021/12/08 01:28:32;;;;;;;13.48;6.20;;;;;;;11.21;61.56;99194.09;4952764;29;20072;-65
2021/12/08 01:31:00;;;;;;;16.50;6.57;;;;;;;11.11;62.02;99189.09;4953415;29;20028;-62
2021/12/08 01:33:27;;;;;;;11.13;5.80;;;;;;;10.77;62.68;99191.22;4951719;28;20032;-63
2021/12/08 01:35:53;;;;;;;12.13;6.13;;;;;;;11.13;61.83;99195.03;4951850;28;20055;-66
2021/12/08 01:38:19;;;;;;;16.10;6.07;;;;;;;11.06;62.30;99190.16;4952691;29;20059;-66
2021/12/08 01:40:44;;;;;;;12.80;5.82;;;;;;;11.15;62.12;99195.47;4936408;29;20035;-63
2021/12/08 01:43:23;;;;;;;14.80;6.18;;;;;;;10.82;62.93;99183.56;4936222;29;20039;-67
2021/12/08 01:46:00;;;;;;;13.63;6.85;;;;;;;11.51;61.21;99185.53;4937693;29;20547;-64
2021/12/08 01:48:28;;;;;;;14.55;7.05;;;;;;;10.63;63.39;99184.16;4951923;29;20030;-65
2021/12/08 01:50:57;;;;;;;13.60;6.70;;;;;;;10.51;64.21;99189.63;4951609;29;20042;-65
2021/12/08 01:53:23;;;;;;;16.15;6.55;;;;;;;10.62;64.00;99199.00;4935371;29;20469;-67
2021/12/08 01:55:48;;;;;;;13.02;6.82;;;;;;;11.12;62.70;99199.72;4936110;29;20046;-63
2021/12/08 01:58:15;;;;;;;19.02;6.80;;;;;;;10.48;64.26;99193.06;4952677;29;20083;-64
2021/12/08 02:00:45;;;;;;;18.80;8.00;;;;;;;10.81;63.30;99205.84;4952718;29;20032;-65
2021/12/08 02:03:10;;;;;;;18.52;7.57;;;;;;;10.13;65.48;99215.38;4952869;29;20299;-68
2021/12/08 02:05:36;;;;;;;14.82;7.22;;;;;;;11.17;62.05;99212.41;4936182;29;20043;-65
2021/12/08 02:08:04;;;;;;;18.67;7.60;;;;;;;10.84;62.98;99213.38;4952904;29;20020;-63
2021/12/08 02:10:29;;;;;;;19.40;7.85;;;;;;;10.73;63.38;99215.00;4935527;29;20499;-66
2021/12/08 02:12:55;;;;;;;17.08;7.10;;;;;;;10.47;64.33;99219.66;4936037;29;20064;-64
2021/12/08 02:15:21;;;;;;;16.67;6.28;;;;;;;10.62;63.53;99226.41;4935549;29;20054;-67
2021/12/08 02:17:53;;;;;;;14.82;6.40;;;;;;;10.75;62.97;99223.66;4952918;29;20059;-66
2021/12/08 02:20:21;;;;;;;19.33;5.88;;;;;;;10.84;62.98;99224.34;4952591;29;20079;-63
2021/12/08 02:22:46;;;;;;;15.90;5.97;;;;;;;11.46;60.82;99224.22;4952551;29;20035;-66
2021/12/08 02:25:15;;;;;;;14.63;6.07;;;;;;;10.69;63.51;99214.88;4920416;29;20060;-65
2021/12/08 02:27:41;;;;;;;13.98;5.82;;;;;;;10.58;64.05;99227.41;4953095;29;20405;-64
2021/12/08 02:30:29;;;;;;;20.05;6.72;;;;;;;10.61;63.54;99224.81;4936916;29;20051;-64
2021/12/08 02:49:01;;;;;;;15.48;5.10;;;;;;;10.51;63.36;99219.78;4952886;29;20046;-64
2021/12/08 02:51:26;;;;;;;12.93;4.30;;;;;;;10.50;62.17;99218.19;4935576;29;20040;-63
2021/12/08 02:53:52;;;;;;;12.50;4.32;;;;;;;10.40;62.50;99218.63;4952928;29;20028;-65
2021/12/08 02:56:18;;;;;;;13.20;4.40;;;;;;;10.47;62.05;99224.34;4920274;29;20031;-63
2021/12/08 02:58:43;;;;;;;12.68;3.80;;;;;;;10.16;62.93;99231.13;4952585;29;20039;-62
2021/12/08 03:01:11;;;;;;;11.18;3.45;;;;;;;9.88;62.56;99231.75;4937482;29;20043;-61
2021/12/08 03:03:38;;;;;;;6.47;3.17;;;;;;;10.69;60.85;99234.06;4956113;29;20032;-65
2021/12/08 03:06:04;;;;;;;7.40;2.80;;;;;;;10.45;61.26;99230.19;4939814;29;20036;-65
2021/12/08 03:08:29;;;;;;;7.55;2.50;;;;;;;10.87;59.66;99251.06;4955816;29;20046;-66
2021/12/08 03:10:55;;;;;;;7.72;2.60;;;;;;;10.74;60.10;99243.97;4923862;29;20126;-65
2021/12/08 03:13:39;;;;;;;7.50;2.20;;;;;;;10.73;60.12;99245.94;4954965;29;20028;-64
2021/12/08 03:16:06;;;;;;;6.32;2.15;;;;;;;10.31;61.02;99244.16;4956155;29;20042;-64
2021/12/08 03:18:34;;;;;;;6.78;1.75;;;;;;;10.73;59.81;99245.13;4955720;29;20032;-64
2021/12/08 03:21:02;;;;;;;8.68;1.95;;;;;;;10.88;59.23;99238.94;4956194;29;20035;-65
2021/12/08 03:26:12;;;;;;;5.22;2.15;;;;;;;10.70;59.82;99236.44;4941758;29;20070;-66
2021/12/08 03:28:45;;;;;;;11.40;2.40;;;;;;;10.60;59.92;99236.91;4955432;29;20051;-64
2021/12/08 03:31:16;;;;;;;7.20;2.22;;;;;;;11.11;58.46;99235.72;4940238;29;20162;-65
2021/12/08 03:33:42;;;;;;;8.27;2.45;;;;;;;10.33;60.65;99241.13;4939590;29;20035;-65
2021/12/08 03:36:08;;;;;;;8.65;2.58;;;;;;;10.60;60.34;99241.59;4939310;29;20194;-64
2021/12/08 03:38:34;;;;;;;6.45;2.53;;;;;;;10.57;60.64;99240.34;4955733;29;20032;-65
2021/12/08 03:41:03;;;;;;;7.10;2.70;;;;;;;10.69;59.75;99237.59;4956010;29;20032;-63
2021/12/08 03:43:29;;;;;;;8.93;3.10;;;;;;;9.73;62.26;99240.59;4955680;29;20051;-65
2021/12/08 03:45:56;;;;;;;7.57;2.70;;;;;;;10.32;60.56;99244.97;4955456;29;20047;-65
2021/12/08 03:48:31;;;;;;;9.55;2.78;;;;;;;10.29;60.80;99248.38;4955848;29;20037;-64
2021/12/08 03:50:57;;;;;;;9.40;2.50;;;;;;;9.92;61.60;99257.31;4955422;29;20039;-65
2021/12/08 03:53:23;;;;;;;9.23;2.63;;;;;;;10.55;59.28;99267.28;4938949;29;20027;-66
2021/12/08 03:55:51;;;;;;;8.30;2.55;;;;;;;10.12;60.45;99279.50;4953869;28;20032;-63
2021/12/08 03:58:17;;;;;;;6.85;2.38;;;;;;;10.11;60.63;99289.63;4938656;29;20030;-66
2021/12/08 04:00:45;;;;;;;8.77;2.70;;;;;;;9.61;62.07;99279.66;4955216;29;20055;-65
2021/12/08 04:03:12;;;;;;;9.38;2.45;;;;;;;10.19;60.18;99279.75;4955366;29;20481;-64
2021/12/08 04:06:04;;;;;;;8.55;2.00;;;;;;;9.82;60.75;99282.38;4922248;29;20028;-66
2021/12/08 04:08:39;;;;;;;6.15;2.00;;;;;;;9.85;60.88;99275.44;4954984;29;20083;-66
2021/12/08 04:11:06;;;;;;;11.07;2.40;;;;;;;9.60;61.66;99289.78;4955505;29;20091;-65
2021/12/08 04:13:42;;;;;;;9.77;2.63;;;;;;;10.14;60.20;99271.75;4922614;29;20114;-64
2021/12/08 04:16:10;;;;;;;12.00;2.60;;;;;;;9.72;61.27;99269.91;4955410;29;20020;-64
2021/12/08 04:18:35;;;;;;;11.43;3.03;;;;;;;10.14;59.37;99279.97;4938345;29;20039;-65
2021/12/08 04:21:02;;;;;;;13.00;3.35;;;;;;;9.86;60.71;99271.53;4953529;29;20036;-66
2021/12/08 04:23:35;;;;;;;15.38;3.50;;;;;;;9.71;60.47;99270.25;4938331;29;20468;-64
2021/12/08 04:26:03;;;;;;;14.70;3.47;;;;;;;9.58;60.94;99278.38;4954185;29;20579;-63
2021/12/08 04:28:31;;;;;;;13.82;3.33;;;;;;;9.67;60.98;99277.50;4938218;29;20043;-64
2021/12/08 04:31:04;;;;;;;11.48;3.05;;;;;;;9.49;61.25;99280.38;4937809;29;20035;-64
2021/12/08 04:33:32;;;;;;;13.38;3.33;;;;;;;9.44;60.98;99288.78;4937516;29;20023;-67
2021/12/08 04:35:58;;;;;;;10.85;2.75;;;;;;;9.13;62.08;99289.97;4937856;29;20035;-63
2021/12/08 04:38:36;;;;;;;12.65;3.10;;;;;;;9.50;60.13;99298.41;4937655;29;20110;-64
2021/12/08 04:41:07;;;;;;;13.13;3.33;;;;;;;10.24;58.72;99309.66;4954598;29;20054;-65
2021/12/08 04:43:54;;;;;;;13.32;2.92;;;;;;;9.65;59.60;99320.84;4937490;29;20027;-63
2021/12/08 05:01:12;;;;;;;9.77;2.53;;;;;;;10.07;58.22;99287.91;4948320;29;20071;-64
2021/12/08 05:08:18;;;;;;;9.97;1.97;;;;;;;9.57;58.47;99301.41;4954762;29;20527;-64
2021/12/08 05:10:43;;;;;;;8.05;1.90;;;;;;;9.32;59.21;99302.38;4922160;29;20031;-64
2021/12/08 05:13:12;;;;;;;8.48;2.08;;;;;;;9.43;58.95;99320.84;4953890;29;20035;-66
2021/12/08 05:15:42;;;;;;;6.45;1.98;;;;;;;9.42;59.09;99315.69;4937688;29;20036;-67
2021/12/08 05:18:15;;;;;;;10.35;2.00;;;;;;;9.30;59.27;99337.47;4954060;29;20040;-66
2021/12/08 05:20:56;;;;;;;9.07;1.75;;;;;;;9.32;58.73;99324.28;4954385;29;20028;-64
2021/12/08 05:23:44;;;;;;;8.23;1.48;;;;;;;9.44;58.04;99327.09;4953770;29;20027;-63
2021/12/08 05:26:17;;;;;;;7.85;1.58;;;;;;;9.52;57.80;99323.50;4953951;29;20032;-64
2021/12/08 05:28:46;;;;;;;6.20;1.77;;;;;;;9.83;57.37;99321.47;4954289;29;20038;-63
2021/12/08 05:31:15;;;;;;;5.75;1.65;;;;;;;9.82;57.06;99319.91;4953765;29;20050;-65
2021/12/08 05:33:43;;;;;;;8.70;1.40;;;;;;;9.33;58.60;99325.88;4954498;29;20047;-65
2021/12/08 05:36:11;;;;;;;7.47;2.03;;;;;;;9.95;56.51;99340.69;4953716;29;20039;-63
2021/12/08 05:38:37;;;;;;;6.57;1.58;;;;;;;9.57;57.78;99347.91;4954280;29;20019;-63
2021/12/08 05:41:12;;;;;;;9.52;1.70;;;;;;;8.89;60.33;99351.53;4953797;29;20038;-62
2021/12/08 05:43:39;;;;;;;6.05;1.50;;;;;;;9.23;58.87;99347.00;4952905;28;20020;-66
2021/12/08 05:46:09;;;;;;;7.65;1.40;;;;;;;9.42;58.14;99345.78;4936896;29;20032;-65
2021/12/08 05:48:35;;;;;;;8.45;1.90;;;;;;;9.34;58.39;99344.69;4954097;29;20035;-64
2021/12/08 05:51:12;;;;;;;8.50;1.77;;;;;;;9.44;58.15;99348.97;4936805;29;20051;-63
2021/12/08 05:53:41;;;;;;;5.57;1.77;;;;;;;9.17;58.50;99351.06;4937209;29;20087;-64
2021/12/08 05:56:08;;;;;;;7.15;1.40;;;;;;;8.82;59.56;99356.69;4953474;29;20056;-64
2021/12/08 05:58:34;;;;;;;6.90;1.58;;;;;;;9.38;57.59;99350.28;4936659;29;20043;-63
2021/12/08 06:01:12;;;;;;;6.75;1.75;;;;;;;9.48;57.52;99366.34;4953071;29;20031;-64
2021/12/08 06:03:39;;;;;;;11.25;1.75;;;;;;;9.00;58.95;99359.34;4953696;29;20028;-64
2021/12/08 06:06:05;;;;;;;8.27;1.70;;;;;;;8.85;59.39;99368.91;4936713;29;20027;-64
2021/12/08 06:08:31;;;;;;;9.27;2.00;;;;;;;9.28;58.41;99361.63;4937169;29;20031;-65
2021/12/08 06:10:59;;;;;;;8.10;2.17;;;;;;;8.85;59.08;99360.72;4953385;29;20031;-63
2021/12/08 06:13:24;;;;;;;10.98;1.65;;;;;;;9.20;58.12;99355.88;4953804;29;20028;-64
2021/12/08 06:15:50;;;;;;;6.97;1.88;;;;;;;9.35;57.53;99361.91;4936916;29;20053;-63
2021/12/08 06:18:20;;;;;;;9.52;1.80;;;;;;;8.88;59.31;99385.44;4953245;29;20023;-65
2021/12/08 06:20:46;;;;;;;11.07;1.88;;;;;;;8.99;58.92;99379.63;4937788;29;20091;-64
2021/12/08 06:23:12;;;;;;;9.70;1.50;;;;;;;8.88;59.21;99390.91;4936648;29;20095;-66
2021/12/08 06:25:38;;;;;;;11.70;1.92;;;;;;;8.56;60.38;99397.75;4920994;29;20657;-63
2021/12/08 06:28:04;;;;;;;11.68;1.95;;;;;;;9.00;58.67;99403.88;4952856;29;20052;-64
2021/12/08 06:30:33;;;;;;;8.07;1.70;;;;;;;8.68;59.67;99414.25;4953514;29;20042;-62
2021/12/08 06:32:59;;;;;;;8.80;2.00;;;;;;;8.53;60.32;99403.88;4953312;29;20031;-63
2021/12/08 06:35:30;;;;;;;9.48;1.92;;;;;;;9.24;59.00;99411.50;4954106;29;20028;-64
2021/12/08 06:37:56;;;;;;;9.88;1.88;;;;;;;9.43;57.97;99399.34;4940571;29;20026;-63
2021/12/08 06:40:32;;;;;;;15.27;2.25;;;;;;;9.66;57.70;99404.53;4957004;29;20024;-64
2021/12/08 06:43:02;;;;;;;9.80;1.98;;;;;;;9.37;58.02;99409.69;4957215;29;20036;-65
2021/12/08 06:45:32;;;;;;;8.90;2.22;;;;;;;8.98;59.67;99400.69;4957195;29;20035;-64
2021/12/08 06:48:02;;;;;;;14.32;2.35;;;;;;;8.76;59.78;99403.66;4957403;29;20020;-65
2021/12/08 06:50:35;;;;;;;15.55;2.25;;;;;;;8.89;59.59;99397.16;4957185;29;20035;-65
2021/12/08 06:53:00;;;;;;;9.55;2.00;;;;;;;9.19;58.38;99408.16;4957134;29;20027;-64
2021/12/08 06:55:33;;;;;;;9.95;1.50;;;;;;;8.55;59.63;99400.81;4956372;29;20031;-64
2021/12/08 06:58:04;;;;;;;9.70;1.85;;;;;;;8.75;59.56;99416.53;4940137;29;20024;-62
2021/12/08 07:00:51;;;;;;;8.70;2.17;;;;;;;9.32;58.27;99422.72;4956962;29;20083;-64
2021/12/08 07:06:07;;;;;;;8.95;2.47;;;;;;;8.69;59.92;99424.06;4957069;29;20043;-63
2021/12/08 07:08:36;;;;;;;9.15;1.83;;;;;;;8.73;59.70;99429.69;4956602;29;20019;-64
2021/12/08 07:11:03;;;;;;;9.70;2.20;;;;;;;9.30;58.47;99441.41;4956484;29;20028;-64
2021/12/08 07:13:32;;;;;;;10.60;1.93;;;;;;;8.63;59.43;99440.97;4939593;29;20028;-64
2021/12/08 07:16:10;;;;;;;10.50;2.47;;;;;;;8.40;60.27;99443.88;4955663;28;20275;-65
2021/12/08 07:18:53;;;;;;;7.63;2.50;;;;;;;9.11;58.40;99433.59;4950817;29;20028;-62
2021/12/08 07:21:21;;;;;;;12.85;2.58;;;;;;;9.55;57.12;99437.72;4955907;29;20031;-64
2021/12/08 07:23:52;;;;;;;12.45;2.60;;;;;;;9.23;57.66;99431.78;4955280;28;20024;-64
2021/12/08 07:26:25;;;;;;;11.25;2.42;;;;;;;9.41;57.79;99428.97;4938965;29;20062;-64
2021/12/08 07:28:53;;;;;;;6.50;1.73;;;;;;;8.83;59.24;99434.81;4936908;29;20063;-64
2021/12/08 07:31:41;;;;;;;13.52;2.42;;;;;;;8.63;59.33;99443.69;4954690;29;20693;-64
2021/12/08 07:34:09;;;;;;;7.50;2.15;;;;;;;9.27;58.01;99453.78;4956186;29;20024;-64
2021/12/08 07:36:39;;;;;;;13.27;2.75;;;;;;;8.73;59.49;99457.00;4939118;29;20059;-62
2021/12/08 07:39:17;;;;;;;11.27;2.28;;;;;;;8.87;59.01;99457.63;4956079;29;20034;-66
2021/12/08 07:41:48;;;;;;;11.63;2.33;;;;;;;9.34;57.86;99456.03;4955994;29;20030;-63
2021/12/08 07:44:15;;;;;;;12.63;2.85;;;;;;;8.20;61.08;99466.34;4955649;29;20106;-64
2021/12/08 07:46:46;;;;;;;11.15;2.67;;;;;;;8.61;59.77;99456.88;4938812;29;20027;-66
2021/12/08 07:49:18;;;;;;;12.93;2.67;;;;;;;9.12;58.42;99457.09;4956053;29;20031;-65
2021/12/08 07:51:53;;;;;;;9.48;2.80;;;;;;;9.28;58.25;99449.16;4955930;29;20035;-67
2021/12/08 07:54:22;;;;;;;12.23;2.83;;;;;;;8.70;59.03;99458.47;4938627;29;20031;-64
2021/12/08 07:56:51;;;;;;;12.05;2.35;;;;;;;8.65;59.40;99452.38;4955039;29;20027;-63
2021/12/08 07:59:18;;;;;;;11.57;2.58;;;;;;;8.94;58.30;99451.69;4955175;29;20054;-64
2021/12/08 08:01:48;;;;;;;10.75;2.63;;;;;;;9.61;56.60;99452.03;4939149;29;20473;-64
2021/12/08 08:04:17;;;;;;;7.78;2.40;;;;;;;8.68;59.15;99466.19;4955453;29;20035;-63
2021/12/08 08:06:46;;;;;;;7.05;2.35;;;;;;;9.11;58.13;99460.94;4955631;29;20063;-63
2021/12/08 08:09:18;;;;;;;9.85;2.65;;;;;;;8.65;59.30;99461.38;4955563;29;20031;-63
2021/12/08 08:11:54;;;;;;;12.32;2.55;;;;;;;8.92;58.41;99453.13;4955654;29;20027;-65
2021/12/08 08:14:20;;;;;;;9.00;2.28;;;;;;;8.62;59.10;99458.47;4955202;29;20030;-65
2021/12/08 08:16:50;;;;;;;8.85;2.17;;;;;;;8.99;58.68;99458.91;4955248;29;20039;-63
2021/12/08 08:19:19;;;;;;;12.63;2.70;;;;;;;8.89;58.51;99458.13;4955362;29;20038;-64
2021/12/08 08:21:51;;;;;;;10.35;2.55;;;;;;;8.94;58.89;99450.84;4938608;29;20091;-64
2021/12/08 08:24:19;;;;;;;14.20;2.58;;;;;;;8.98;58.65;99449.09;4955419;29;20036;-60
2021/12/08 08:26:49;;;;;;;10.82;2.58;;;;;;;8.86;58.55;99461.50;4968581;29;20047;-63
2021/12/08 08:29:15;;;;;;;9.23;1.95;;;;;;;8.93;59.14;99463.72;4966458;29;20023;-64
2021/12/08 08:31:59;;;;;;;6.78;2.00;;;;;;;9.20;59.12;99467.97;4932848;29;20056;-65
2021/12/08 08:34:27;;;;;;;11.27;2.38;;;;;;;9.24;58.79;99463.47;4971984;29;20055;-65
2021/12/08 08:36:54;;;;;;;8.25;2.50;;;;;;;9.46;58.36;99469.00;4957442;29;20103;-66
2021/12/08 08:39:28;;;;;;;13.35;2.13;;;;;;;9.78;57.52;99470.28;4974274;29;20520;-64
2021/12/08 08:42:08;;;;;;;8.88;2.20;;;;;;;9.64;57.53;99476.00;4974046;29;20035;-63
2021/12/08 08:44:39;;;;;;;10.85;1.83;;;;;;;9.31;57.66;99470.38;4974081;28;20030;-63
2021/12/08 08:47:10;;;;;;;9.05;2.28;;;;;;;9.80;56.60;99476.25;4974000;29;20034;-68
2021/12/08 08:49:37;;;;;;;11.75;2.30;;;;;;;8.86;59.21;99468.88;4974204;28;20023;-66
2021/12/08 08:52:19;;;;;;;8.90;2.15;;;;;;;9.11;58.51;99472.66;4957540;29;20035;-66
2021/12/08 08:54:48;;;;;;;9.68;2.35;;;;;;;9.86;57.15;99485.84;4973674;29;20031;-63
2021/12/08 08:57:20;;;;;;;10.80;2.30;;;;;;;9.97;56.56;99487.09;4973978;29;20034;-65
2021/12/08 08:59:53;;;;;;;7.63;1.70;;;;;;;9.54;57.50;99488.09;4972809;28;20353;-64
2021/12/08 09:02:30;;;;;;;10.30;2.10;;;;;;;9.10;58.36;99492.97;4973749;29;20078;-63
2021/12/08 09:04:58;;;;;;;8.93;2.03;;;;;;;9.56;57.81;99496.81;4973487;29;20031;-67
2021/12/08 09:07:39;;;;;;;9.60;2.17;;;;;;;9.30;57.97;99491.44;4973803;29;20054;-63
2021/12/08 09:10:16;;;;;;;10.07;2.22;;;;;;;9.77;57.35;99501.53;4956689;29;20023;-63
2021/12/08 09:12:58;;;;;;;10.75;2.42;;;;;;;9.74;57.24;99499.44;4972464;29;20042;-65
2021/12/08 09:15:29;;;;;;;8.05;2.38;;;;;;;9.37;57.59;99502.69;4973638;29;20035;-64
2021/12/08 09:18:15;;;;;;;9.43;2.08;;;;;;;9.46;57.64;99499.09;4973521;29;20042;-65
2021/12/08 09:20:54;;;;;;;6.32;1.98;;;;;;;9.05;58.66;99501.31;4973067;29;20035;-64
2021/12/08 09:23:29;;;;;;;10.55;2.38;;;;;;;9.11;58.15;99489.06;4973286;29;20027;-63
2021/12/08 09:26:02;;;;;;;10.75;2.08;;;;;;;9.65;57.21;99490.47;4971216;29;20023;-66
2021/12/08 09:28:35;;;;;;;10.05;2.05;;;;;;;9.18;58.01;99494.03;4973088;28;20038;-64
2021/12/08 09:31:17;;;;;;;10.93;2.13;;;;;;;10.00;56.42;99499.28;4973172;29;20086;-66
2021/12/08 09:33:51;;;;;;;12.15;2.70;;;;;;;9.25;58.06;99511.53;4972762;29;20023;-63
2021/12/08 09:36:21;;;;;;;6.95;2.60;;;;;;;9.47;57.91;99522.59;4973047;29;20112;-63
2021/12/08 09:39:00;;;;;;;8.98;2.53;;;;;;;9.41;57.73;99502.81;4972810;28;20038;-64
2021/12/08 09:41:44;;;;;;;6.28;2.20;;;;;;;8.85;59.50;99513.75;4971754;28;20031;-62
2021/12/08 09:44:17;;;;;;;7.05;2.38;;;;;;;9.91;56.52;99513.03;4955894;29;20034;-63
2021/12/08 09:46:46;;;;;;;7.18;2.47;;;;;;;9.59;57.62;99512.56;4955402;29;20042;-62
2021/12/08 09:49:15;;;;;;;7.07;2.72;;;;;;;9.75;57.09;99509.25;4955857;29;20046;-65
2021/12/08 09:51:42;;;;;;;8.10;2.63;;;;;;;9.70;57.37;99520.38;4972242;29;20030;-62
2021/12/08 09:54:08;;;;;;;7.85;2.00;;;;;;;9.93;56.85;99527.19;4953028;29;20031;-66
2021/12/08 09:56:34;;;;;;;5.38;2.00;;;;;;;9.68;56.86;99528.13;4938804;29;20042;-63
2021/12/08 09:59:02;;;;;;;8.13;2.45;;;;;;;9.71;56.69;99533.75;4952965;29;20051;-64
2021/12/08 10:01:28;;;;;;;7.20;2.45;;;;;;;9.82;56.44;99539.66;4955118;29;20031;-62
2021/12/08 10:03:55;;;;;;;7.07;1.88;;;;;;;9.10;57.66;99547.63;4952719;29;20050;-64
2021/12/08 10:06:23;;;;;;;9.13;2.80;;;;;;;9.88;56.13;99554.75;4955120;29;20041;-66
2021/12/08 10:08:50;;;;;;;5.55;2.92;;;;;;;9.41;57.31;99552.84;4949834;29;20027;-67
2021/12/08 10:11:18;;;;;;;7.28;3.00;;;;;;;10.06;56.04;99554.66;4968876;28;20028;-64
2021/12/08 10:13:45;;;;;;;10.18;4.00;;;;;;;9.76;55.77;99562.88;4954897;29;20023;-64
2021/12/08 10:16:12;;;;;;;8.63;3.50;;;;;;;9.93;55.69;99565.53;4972786;29;20047;-65
2021/12/08 10:18:39;;;;;;;;;;;;;;;9.55;56.35;99569.06;4972677;29;20055;-63
2021/12/08 10:21:04;;;;;;;6.97;2.80;;;;;;;10.03;55.08;99574.50;4972742;29;20000;-65
2021/12/08 10:23:34;;;;;;;8.00;3.33;;;;;;;10.27;55.32;99563.69;4955744;29;20054;-62
2021/12/08 10:26:10;;;;;;;7.25;2.90;;;;;;;10.54;53.99;99561.63;4964195;29;20024;-63
2021/12/08 10:28:40;;;;;;;6.95;3.60;;;;;;;9.40;56.22;99551.25;4963989;29;20097;-63
2021/12/08 10:31:28;;;;;;;11.40;3.42;;;;;;;10.29;54.98;99557.91;4946607;29;20031;-65
2021/12/08 10:34:05;;;;;;;8.18;3.15;;;;;;;9.23;57.09;99568.50;4946471;29;20038;-66
2021/12/08 10:36:44;;;;;;;6.80;3.22;;;;;;;10.13;55.17;99557.66;4969299;29;20043;-62
2021/12/08 10:39:16;;;;;;;8.70;3.53;;;;;;;10.11;55.64;99562.69;4966489;29;20027;-63
2021/12/08 10:42:04;;;;;;;6.95;2.65;;;;;;;9.37;56.88;99567.50;4961949;29;20034;-63
2021/12/08 10:44:32;;;;;;;7.22;3.10;;;;;;;10.44;54.65;99567.50;4961529;28;20043;-65
2021/12/08 10:46:59;;;;;;;6.28;2.90;;;;;;;9.96;54.88;99567.59;4959391;29;20023;-66
2021/12/08 10:54:37;;;;;;;10.35;3.95;;;;;;;10.10;54.60;99575.59;4951653;29;20038;-63
2021/12/08 10:57:19;;;;;;;7.60;3.22;;;;;;;10.93;53.14;99562.28;4950663;29;20062;-65
2021/12/08 11:00:03;;;;;;;9.93;3.65;;;;;;;11.84;51.81;99569.69;4950952;29;20027;-63
2021/12/08 11:02:43;;;;;;;6.93;2.90;;;;;;;11.54;52.37;99571.81;4951762;29;20051;-66
2021/12/08 11:05:47;;;;;;;9.25;3.10;;;;;;;11.56;51.74;99553.06;4961183;29;20031;-64
2021/12/08 11:08:20;;;;;;;7.82;2.45;;;;;;;11.47;51.59;99544.13;4959289;29;20161;-65
2021/12/08 11:10:53;;;;;;;8.60;2.70;;;;;;;11.19;51.93;99564.75;4951379;29;20027;-66
2021/12/08 11:13:29;;;;;;;4.75;2.38;;;;;;;10.51;53.60;99554.06;4970489;29;20023;-64
2021/12/08 11:16:14;;;;;;;9.57;3.20;;;;;;;10.48;53.90;99571.19;4952664;29;20066;-62
2021/12/08 11:18:46;;;;;;;8.90;2.85;;;;;;;11.48;51.67;99553.97;4970687;29;20772;-64
2021/12/08 11:21:24;;;;;;;7.07;2.80;;;;;;;10.87;53.16;99561.66;4969412;28;20034;-64
2021/12/08 11:23:52;;;;;;;6.85;3.10;;;;;;;10.82;53.33;99566.56;4963449;29;20023;-63
2021/12/08 11:26:17;;;;;;;13.35;3.20;;;;;;;10.77;53.37;99561.28;4937854;29;20060;-65
2021/12/08 11:28:45;;;;;;;6.90;3.20;;;;;;;10.75;53.72;99547.09;4963248;29;20033;-62
2021/12/08 11:31:14;;;;;;;6.60;2.90;;;;;;;10.54;53.78;99547.91;4954126;29;20040;-62
2021/12/08 11:33:48;;;;;;;7.70;3.22;;;;;;;10.67;53.47;99548.78;4962948;28;20032;-63
2021/12/08 11:36:22;;;;;;;9.38;3.70;;;;;;;10.82;53.23;99561.09;4969628;29;20023;-64
2021/12/08 11:38:50;;;;;;;12.45;4.43;;;;;;;10.84;53.19;99567.81;4974685;29;20039;-63
2021/12/08 11:41:36;;;;;;;9.98;3.35;;;;;;;11.04;52.82;99570.88;4974421;29;20031;-65
2021/12/08 11:44:10;;;;;;;12.70;4.00;;;;;;;11.65;51.44;99589.44;4975004;29;20047;-64
2021/12/08 11:46:45;;;;;;;8.63;3.88;;;;;;;11.19;52.67;99596.88;4975110;29;20027;-63
2021/12/08 11:49:11;;;;;;;9.98;3.92;;;;;;;10.83;52.90;99590.09;4975013;29;20034;-62
2021/12/08 11:51:42;;;;;;;10.68;3.72;;;;;;;10.88;53.00;99590.69;4973396;29;20054;-64
2021/12/08 11:54:31;;;;;;;9.80;3.50;;;;;;;11.24;52.20;99585.69;4963330;29;20824;-62
2021/12/08 11:57:12;;;;;;;9.00;3.72;;;;;;;10.65;53.71;99582.00;4962012;29;20055;-63
2021/12/08 11:59:56;;;;;;;13.60;3.63;;;;;;;11.78;51.08;99576.53;4959759;29;20031;-64
2021/12/08 12:02:26;;;;;;;9.52;3.80;;;;;;;11.27;52.28;99585.00;4955755;29;20452;-66
2021/12/08 12:04:51;;;;;;;8.40;3.55;;;;;;;10.29;53.74;99586.13;4945293;29;20070;-65
2021/12/08 12:07:18;;;;;;;11.43;3.90;;;;;;;10.76;52.94;99585.16;4966555;29;20030;-63
2021/12/08 12:09:44;;;;;;;8.82;3.63;;;;;;;11.27;52.19;99586.97;4952351;29;20031;-62
2021/12/08 12:12:10;;;;;;;10.88;3.70;;;;;;;10.71;53.02;99586.16;4933214;29;20095;-62
2021/12/08 12:14:36;;;;;;;7.10;3.83;;;;;;;10.88;52.62;99582.47;4965590;28;20027;-63
2021/12/08 12:17:02;;;;;;;7.95;3.65;;;;;;;11.20;52.12;99598.50;4960491;29;20050;-64
2021/12/08 12:19:33;;;;;;;10.65;3.92;;;;;;;10.84;53.40;99597.19;4950487;29;20095;-64
2021/12/08 12:22:31;;;;;;;10.38;4.63;;;;;;;11.13;52.85;99587.25;4968521;29;20026;-65
2021/12/08 12:25:21;;;;;;;12.48;4.45;;;;;;;11.51;51.99;99580.72;4948030;29;20083;-64
2021/12/08 12:28:20;;;;;;;11.38;4.50;;;;;;;11.14;52.51;99588.88;4955100;29;20047;-63
2021/12/08 12:31:20;;;;;;;12.65;5.07;;;;;;;10.90;53.04;99593.09;4954656;29;20082;-63
2021/12/08 12:33:49;;;;;;;10.10;4.38;;;;;;;10.83;53.37;99601.88;4952996;28;20034;-63
2021/12/08 12:36:38;;;;;;;15.63;5.20;;;;;;;11.59;51.55;99607.28;4953665;28;20055;-65
2021/12/08 12:39:19;;;;;;;12.88;4.70;;;;;;;11.08;52.71;99611.00;4952822;29;20059;-65